Terminal Aerodrome Forecast
Issued by NWS

Home | Current Version | Previous Version | Text Only | Print | Product List | Glossary On
Versions: 1 2 3 4 5 6 7 8 9 10 11 12 13 14 15 16 17 18 19
000
FTUS41 KBOX 122019 AAA
TAFACK
TAF AMD
KACK 122019Z 1220/1318 12013G20KT P6SM -RA FEW040 BKN050 OVC070
     FM122300 20011G22KT P6SM BKN100
     FM130300 26012G22KT P6SM OVC030
     FM130600 28013G23KT P6SM BKN040
     FM131000 27022G33KT P6SM VCSH BKN050
     FM131500 28026G38KT P6SM BKN035=

USA.gov is the U.S. government's official web portal to all federal, state and local government web resources and services.